createdAt,value
2023-01-30T03:47:45.198Z,83.06
2023-01-30T03:48:47.309Z,83.27
2023-01-30T03:49:49.197Z,83.32
2023-01-30T03:50:51.597Z,83.50
2023-01-30T03:51:53.623Z,83.42
2023-01-30T03:52:55.628Z,83.48
2023-01-30T03:53:58.838Z,83.07
2023-01-30T03:55:01.774Z,83.14
2023-01-30T03:56:05.104Z,83.07
2023-01-30T03:57:07.525Z,83.14
2023-01-30T03:58:09.987Z,82.97
2023-01-30T03:59:12.281Z,82.86
2023-01-30T04:00:15.873Z,82.87
2023-01-30T04:01:19.226Z,82.86
2023-01-30T04:02:22.789Z,82.80
2023-01-30T04:03:24.906Z,83.08
2023-01-30T04:04:26.796Z,83.26
2023-01-30T04:05:28.942Z,83.16
2023-01-30T04:06:31.178Z,83.34
2023-01-30T04:07:33.879Z,83.43
2023-01-30T04:08:35.988Z,83.64
2023-01-30T04:09:37.882Z,83.63
2023-01-30T04:10:40.816Z,83.68
2023-01-30T04:11:42.821Z,83.36
2023-01-30T04:12:45.820Z,83.38
2023-01-30T04:13:47.885Z,83.55
2023-01-30T04:14:50.438Z,83.65
2023-01-30T04:15:52.490Z,83.60
2023-01-30T04:16:54.686Z,83.72
2023-01-30T04:17:56.938Z,83.69
2023-01-30T04:18:58.929Z,83.77
2023-01-30T04:20:01.171Z,84.02
2023-01-30T04:21:04.507Z,83.97
2023-01-30T04:22:06.438Z,83.97
2023-01-30T04:23:08.487Z,83.94
2023-01-30T04:24:10.676Z,83.75
2023-01-30T04:25:13.656Z,83.85
2023-01-30T04:26:16.188Z,83.93
2023-01-30T04:27:19.118Z,83.77
2023-01-30T04:28:21.014Z,83.76
2023-01-30T04:29:22.959Z,83.67
2023-01-30T04:30:25.126Z,83.65
2023-01-30T04:31:27.203Z,83.60
2023-01-30T04:32:29.395Z,83.59
2023-01-30T04:33:32.530Z,83.58
2023-01-30T04:34:35.220Z,83.50
2023-01-30T04:35:37.263Z,83.55
2023-01-30T04:36:39.271Z,83.48
2023-01-30T04:37:41.333Z,83.52
2023-01-30T04:38:43.337Z,83.59
2023-01-30T04:39:45.264Z,83.58
2023-01-30T04:40:49.898Z,83.46
2023-01-30T04:41:52.089Z,83.53
2023-01-30T04:42:54.157Z,83.57
2023-01-30T04:43:56.146Z,83.83
2023-01-30T04:44:58.156Z,83.90
2023-01-30T04:46:00.492Z,83.85
2023-01-30T04:47:02.639Z,83.84
2023-01-30T04:48:05.066Z,83.99
2023-01-30T04:49:09.797Z,83.96
2023-01-30T04:50:12.233Z,84.00
2023-01-30T04:51:14.208Z,84.38
2023-01-30T04:52:19.125Z,84.36
2023-01-30T04:53:22.334Z,84.30
2023-01-30T04:54:24.881Z,84.28
2023-01-30T04:55:26.796Z,84.22
2023-01-30T04:56:28.936Z,84.16
2023-01-30T04:57:30.833Z,84.16
2023-01-30T04:58:32.756Z,84.16
2023-01-30T04:59:34.667Z,84.46
2023-01-30T05:00:36.915Z,84.64
2023-01-30T05:01:39.809Z,84.61
2023-01-30T05:02:41.796Z,84.63
2023-01-30T05:03:43.885Z,84.72
2023-01-30T05:04:48.756Z,84.65
2023-01-30T05:05:50.669Z,84.64
2023-01-30T05:06:53.083Z,84.87
2023-01-30T05:07:55.486Z,85.17
2023-01-30T05:08:58.084Z,85.21
2023-01-30T05:10:02.435Z,85.50
2023-01-30T05:11:05.643Z,85.54
2023-01-30T05:12:07.689Z,85.58
2023-01-30T05:13:09.681Z,85.59
2023-01-30T05:14:11.910Z,85.56
2023-01-30T05:15:14.426Z,85.75
2023-01-30T05:16:17.995Z,85.87
2023-01-30T05:17:20.061Z,85.83
2023-01-30T05:18:22.038Z,85.76
2023-01-30T05:19:23.960Z,85.74
2023-01-30T05:20:27.564Z,85.73
2023-01-30T05:21:29.734Z,85.66
2023-01-30T05:22:32.045Z,85.63
2023-01-30T05:23:35.326Z,85.67
2023-01-30T05:24:37.703Z,85.72
2023-01-30T05:25:39.575Z,86.18
2023-01-30T05:26:42.424Z,86.14
2023-01-30T05:27:44.559Z,86.41
2023-01-30T05:28:55.405Z,86.92
2023-01-30T05:29:57.482Z,86.98
2023-01-30T05:32:16.638Z,86.91
2023-01-30T05:33:18.545Z,86.84
2023-01-30T05:34:21.269Z,87.01
2023-01-30T05:35:23.316Z,87.25
2023-01-30T05:36:25.292Z,87.36
2023-01-30T05:37:27.295Z,87.56
2023-01-30T05:38:29.800Z,87.80
2023-01-30T05:39:31.900Z,87.83
2023-01-30T05:40:34.020Z,87.82
2023-01-30T05:41:39.338Z,88.11
2023-01-30T05:42:42.089Z,88.02
2023-01-30T05:43:46.483Z,88.09
2023-01-30T05:44:48.428Z,88.16
2023-01-30T05:45:57.621Z,88.13
2023-01-30T05:47:00.130Z,88.22
2023-01-30T05:48:03.138Z,88.25
2023-01-30T05:49:05.143Z,88.24
2023-01-30T05:50:09.002Z,88.24
2023-01-30T05:51:20.106Z,88.03
2023-01-30T05:52:22.308Z,88.12
2023-01-30T05:53:27.596Z,88.05
2023-01-30T05:54:29.643Z,88.12
2023-01-30T05:55:31.526Z,88.03
2023-01-30T05:56:33.884Z,88.20
2023-01-30T05:57:35.920Z,88.12
2023-01-30T05:58:37.895Z,87.97
2023-01-30T05:59:39.873Z,88.05
2023-01-30T06:00:41.965Z,87.96
2023-01-30T06:01:44.289Z,88.16
2023-01-30T06:02:46.270Z,88.22
2023-01-30T06:03:49.533Z,87.92
2023-01-30T06:04:51.709Z,87.67
2023-01-30T06:05:53.889Z,87.85
2023-01-30T06:06:55.908Z,87.87
2023-01-30T06:07:57.910Z,87.52
2023-01-30T06:09:00.040Z,87.47
2023-01-30T06:10:02.346Z,87.36
2023-01-30T06:11:07.343Z,87.22
2023-01-30T06:12:09.309Z,87.58
2023-01-30T06:13:11.223Z,87.67
2023-01-30T06:14:13.251Z,87.50
2023-01-30T06:15:15.758Z,87.53
2023-01-30T06:16:18.799Z,87.46
2023-01-30T06:17:20.835Z,87.59
2023-01-30T06:18:23.124Z,87.71
2023-01-30T06:19:25.098Z,87.88
2023-01-30T06:20:27.682Z,88.03
2023-01-30T06:21:30.757Z,88.01
2023-01-30T06:22:32.849Z,87.77
2023-01-30T06:23:35.851Z,88.08
2023-01-30T06:24:37.913Z,87.97
2023-01-30T06:25:45.109Z,87.95
2023-01-30T06:26:47.268Z,87.93
2023-01-30T06:27:49.901Z,87.80
2023-01-30T06:28:52.178Z,87.68
2023-01-30T06:29:55.000Z,87.49
2023-01-30T06:30:57.590Z,87.55
2023-01-30T06:31:59.662Z,87.52
2023-01-30T06:33:01.702Z,87.68
2023-01-30T06:34:04.130Z,87.71
2023-01-30T06:35:06.961Z,87.56
2023-01-30T06:36:09.388Z,87.43
2023-01-30T06:37:11.328Z,87.50
2023-01-30T06:38:13.198Z,87.68
2023-01-30T06:39:15.153Z,87.71
2023-01-30T06:40:18.270Z,87.68
2023-01-30T06:41:21.523Z,87.90
2023-01-30T06:42:23.460Z,88.04
2023-01-30T06:43:25.539Z,87.92
2023-01-30T06:44:27.412Z,87.78
2023-01-30T06:45:29.508Z,87.87
2023-01-30T06:46:31.577Z,87.91
2023-01-30T06:47:33.536Z,88.06
2023-01-30T06:48:35.521Z,87.90
2023-01-30T06:49:37.559Z,88.10
2023-01-30T06:50:39.816Z,88.20
2023-01-30T06:51:41.699Z,88.40
2023-01-30T06:52:46.136Z,88.23
2023-01-30T06:53:48.085Z,88.31
2023-01-30T06:54:49.956Z,88.05
2023-01-30T06:55:52.139Z,87.99
2023-01-30T06:56:54.127Z,88.18
2023-01-30T06:58:08.410Z,88.43
2023-01-30T06:59:10.325Z,88.43
2023-01-30T07:00:18.804Z,88.52
2023-01-30T07:01:21.022Z,88.60
2023-01-30T07:02:22.937Z,88.66
2023-01-30T07:03:25.775Z,88.66
2023-01-30T07:04:27.761Z,88.93
2023-01-30T07:05:30.939Z,88.97
2023-01-30T07:06:34.452Z,88.91
2023-01-30T07:07:37.400Z,88.95
2023-01-30T07:08:39.397Z,88.92
2023-01-30T07:09:41.283Z,89.23
2023-01-30T07:10:44.120Z,89.17
2023-01-30T07:11:46.364Z,89.04
2023-01-30T07:12:48.354Z,89.14
2023-01-30T07:13:51.158Z,89.35
2023-01-30T07:14:53.840Z,89.46
2023-01-30T07:15:55.839Z,89.43
2023-01-30T07:16:58.079Z,89.46
2023-01-30T07:18:00.459Z,89.41
2023-01-30T07:19:02.746Z,89.50
2023-01-30T07:20:06.442Z,89.91
2023-01-30T07:21:08.736Z,90.02
2023-01-30T07:22:11.130Z,90.10
2023-01-30T07:23:13.071Z,89.98
2023-01-30T07:24:14.966Z,89.78
2023-01-30T07:25:18.347Z,89.98
2023-01-30T07:26:21.336Z,90.19
2023-01-30T07:27:24.045Z,90.38
2023-01-30T07:28:26.876Z,90.37
2023-01-30T07:29:29.422Z,90.38
2023-01-30T07:30:34.118Z,90.33
2023-01-30T07:31:36.832Z,90.33
2023-01-30T07:32:38.794Z,90.53
2023-01-30T07:33:40.714Z,90.42
2023-01-30T07:34:42.584Z,90.34
2023-01-30T07:35:47.455Z,90.69
2023-01-30T07:36:49.596Z,90.61
2023-01-30T07:37:51.506Z,90.35
2023-01-30T07:38:53.526Z,90.31
2023-01-30T07:39:55.501Z,90.12
2023-01-30T07:40:58.395Z,90.19
2023-01-30T07:42:01.393Z,90.35
2023-01-30T11:52:34.119Z,90.47
2023-01-30T11:53:39.972Z,90.40
2023-01-30T11:54:44.455Z,90.38
2023-01-30T11:55:56.650Z,90.22
2023-01-30T11:56:56.539Z,90.17
2023-01-30T11:58:01.364Z,90.12
2023-01-30T11:59:26.715Z,89.86
2023-01-30T12:00:41.923Z,89.92
2023-01-30T12:01:44.128Z,90.00
2023-01-30T12:02:49.136Z,89.89
2023-01-30T12:03:54.162Z,89.84
2023-01-30T12:06:22.951Z,89.71
2023-01-30T12:07:28.220Z,89.60
2023-01-30T12:08:42.912Z,89.54
2023-01-30T12:09:43.110Z,89.26
2023-01-30T12:10:49.312Z,89.16
2023-01-30T12:11:51.579Z,89.27
2023-01-30T12:12:56.611Z,89.22
2023-01-30T12:14:25.533Z,89.41
2023-01-30T12:15:35.224Z,89.53
2023-01-30T12:16:52.686Z,89.31
2023-01-30T12:18:10.581Z,89.40
2023-01-30T12:19:19.287Z,89.53
2023-01-30T12:20:43.843Z,89.61
2023-01-30T12:21:52.412Z,89.48
2023-01-30T12:23:16.557Z,89.13
2023-01-30T12:24:40.374Z,89.34
2023-01-30T12:26:00.092Z,89.31
2023-01-30T12:27:14.824Z,89.13
2023-01-30T12:28:49.699Z,88.97
2023-01-30T12:30:20.365Z,89.13
2023-01-30T12:31:35.317Z,88.83
2023-01-30T12:32:37.632Z,88.95
2023-01-30T12:33:39.586Z,88.99
2023-01-30T12:34:41.978Z,88.99
2023-01-30T12:36:02.238Z,89.28
2023-01-30T12:37:25.093Z,89.31
2023-01-30T12:38:37.159Z,89.37
2023-01-30T12:39:41.433Z,89.63
2023-01-30T12:40:53.075Z,89.45
2023-01-30T12:42:01.471Z,89.52
2023-01-30T12:43:10.331Z,89.47
2023-01-30T12:44:35.918Z,89.60
2023-01-30T12:45:56.510Z,89.40
2023-01-30T12:47:34.317Z,89.38
2023-01-30T12:49:10.143Z,89.34
2023-01-30T12:50:20.514Z,89.38
2023-01-30T12:53:38.744Z,89.83
2023-01-30T12:54:53.191Z,89.86
2023-01-30T12:56:20.650Z,89.83
2023-01-30T12:57:29.351Z,89.87
2023-01-30T12:58:59.312Z,89.84
2023-01-30T13:00:05.722Z,89.73
2023-01-30T13:01:26.758Z,90.01
2023-01-30T13:02:41.378Z,89.97
2023-01-30T13:04:02.563Z,90.01
2023-01-30T13:05:24.893Z,89.89
2023-01-30T13:06:39.918Z,90.06
2023-01-30T13:08:14.230Z,90.18
2023-01-30T13:09:39.519Z,90.16
2023-01-30T13:12:38.180Z,90.06
2023-01-30T13:13:49.788Z,90.00
2023-01-30T13:14:58.188Z,90.04
2023-01-30T13:16:15.603Z,90.29
2023-01-30T13:17:38.206Z,90.35
2023-01-30T13:18:59.094Z,90.42
2023-01-30T13:20:17.857Z,90.48
2023-01-30T13:21:27.026Z,90.43
2023-01-30T13:22:35.795Z,90.76
2023-01-30T13:24:02.435Z,90.61
2023-01-30T13:25:17.479Z,90.58
2023-01-30T13:26:23.298Z,90.88
2023-01-30T13:27:27.916Z,90.75
2023-01-30T13:28:48.828Z,90.42
2023-01-30T13:29:52.559Z,90.32
2023-01-30T13:30:56.625Z,90.36
2023-01-30T13:32:02.655Z,90.31
2023-01-30T13:33:11.357Z,90.52
2023-01-30T13:34:35.300Z,90.33
2023-01-30T13:35:40.967Z,90.34
2023-01-30T13:36:52.623Z,90.47
2023-01-30T13:37:56.339Z,90.41
2023-01-30T13:39:07.952Z,90.23
2023-01-30T13:40:19.843Z,90.31
2023-01-30T13:41:24.202Z,90.38
2023-01-30T13:42:46.824Z,90.33
2023-01-30T13:43:52.501Z,90.64
2023-01-30T13:44:57.729Z,90.49
2023-01-30T13:46:03.536Z,90.44
2023-01-30T13:47:15.166Z,90.32
2023-01-30T13:48:26.723Z,90.44
2023-01-30T13:49:45.672Z,90.78
2023-01-30T13:51:14.511Z,90.82
2023-01-30T13:52:43.024Z,90.83
2023-01-30T13:53:58.063Z,90.85
2023-01-30T13:55:08.511Z,90.60
2023-01-30T13:56:44.422Z,90.49
2023-01-30T13:57:42.794Z,90.42
2023-01-30T13:58:57.761Z,90.52
2023-01-30T14:00:22.758Z,90.32
2023-01-30T14:01:45.996Z,90.58
2023-01-30T14:03:07.198Z,90.60
2023-01-30T14:05:57.539Z,90.74
2023-01-30T14:07:16.195Z,90.54
2023-01-30T14:09:31.437Z,90.35
2023-01-30T14:10:34.248Z,90.53
2023-01-30T14:11:59.554Z,90.49
2023-01-30T14:13:05.196Z,90.36
2023-01-30T14:14:28.443Z,90.29
2023-01-30T14:15:31.820Z,90.20
2023-01-30T14:16:49.193Z,90.43
2023-01-30T14:18:04.121Z,90.43
2023-01-30T14:19:29.598Z,90.42
2023-01-30T14:20:41.728Z,90.34
2023-01-30T14:21:56.298Z,90.33
2023-01-30T14:23:08.087Z,90.49
2023-01-30T14:24:13.760Z,90.44
2023-01-30T14:25:33.110Z,90.48
2023-01-30T14:26:51.832Z,90.57
2023-01-30T14:28:06.397Z,90.46
2023-01-30T14:29:08.400Z,90.30
2023-01-30T14:30:46.732Z,90.44
2023-01-30T14:31:49.917Z,90.73
2023-01-30T14:32:54.104Z,90.76
2023-01-30T14:33:56.310Z,90.72
2023-01-30T14:35:04.706Z,90.79
2023-01-30T14:36:16.473Z,90.81
2023-01-30T14:37:36.983Z,90.74
2023-01-30T14:38:40.915Z,90.78
2023-01-30T14:39:46.594Z,90.92
2023-01-30T14:41:01.678Z,90.83
2023-01-30T14:42:24.832Z,90.67
2023-01-30T14:43:39.852Z,90.73
2023-01-30T14:44:57.385Z,90.74
2023-01-30T14:46:21.080Z,90.86
2023-01-30T14:47:33.502Z,90.96
2023-01-30T14:49:57.433Z,90.82
2023-01-30T14:51:29.335Z,90.82
2023-01-30T14:52:37.982Z,90.95
2023-01-30T14:54:01.896Z,91.04
2023-01-30T14:55:05.022Z,91.15
2023-01-30T14:56:07.937Z,91.27
2023-01-30T14:57:22.556Z,91.14
2023-01-30T14:58:24.846Z,91.27
2023-01-30T14:59:33.603Z,91.17
2023-01-30T15:00:39.188Z,91.12
2023-01-30T15:02:02.861Z,91.11
2023-01-30T15:03:18.307Z,90.92
2023-01-30T15:04:21.248Z,91.01
2023-01-30T15:05:29.775Z,90.97
2023-01-30T15:06:35.544Z,91.00
2023-01-30T15:07:47.212Z,91.11
2023-01-30T15:08:53.150Z,91.11
2023-01-30T15:09:59.487Z,91.29
2023-01-30T15:11:17.221Z,91.31
2023-01-30T15:12:26.018Z,91.36
2023-01-30T15:13:46.384Z,91.40
2023-01-30T15:15:04.042Z,91.45
2023-01-30T15:16:34.648Z,91.45
2023-01-30T15:17:43.433Z,91.48
2023-01-30T15:19:11.806Z,91.52
2023-01-30T15:20:37.800Z,91.43
2023-01-30T15:21:49.517Z,91.58
2023-01-30T15:23:01.914Z,91.78
2023-01-30T15:24:13.793Z,91.76
2023-01-30T15:25:25.988Z,91.76
2023-01-30T15:26:48.872Z,91.73
2023-01-30T15:28:09.831Z,91.88
2023-01-30T15:29:32.427Z,91.84
2023-01-30T15:30:41.680Z,91.82
2023-01-30T15:31:56.729Z,91.68
2023-01-30T15:33:22.989Z,91.58
2023-01-30T15:34:22.013Z,91.64
2023-01-30T15:35:27.487Z,91.84
2023-01-30T15:36:35.555Z,91.95
2023-01-30T15:37:47.475Z,92.07
2023-01-30T15:40:18.812Z,92.21
2023-01-30T15:41:21.149Z,92.20
2023-01-30T15:42:23.634Z,92.18
2023-01-30T15:43:35.453Z,92.16
2023-01-30T15:44:47.168Z,92.13
2023-01-30T15:46:09.084Z,92.07
2023-01-30T15:47:27.402Z,92.03
2023-01-30T19:53:53.370Z,95.88
2023-01-30T19:54:55.386Z,96.01
2023-01-30T19:55:57.359Z,96.43
2023-01-30T19:57:00.030Z,96.64
2023-01-30T19:58:02.305Z,96.81
2023-01-30T19:59:04.526Z,96.95
2023-01-30T20:00:08.110Z,96.97
2023-01-30T20:01:13.983Z,97.33
2023-01-30T20:02:22.722Z,97.62
2023-01-30T20:03:25.856Z,97.79
2023-01-30T20:04:27.888Z,98.25
2023-01-30T20:05:29.759Z,98.66
2023-01-30T20:06:33.470Z,99.20
2023-01-30T20:07:36.024Z,99.31
2023-01-30T20:08:38.566Z,99.39
2023-01-30T20:09:41.355Z,99.88
2023-01-30T20:10:43.365Z,100.00
2023-01-30T20:11:45.339Z,100.00
2023-01-30T20:12:47.332Z,100.00
2023-01-30T20:13:50.157Z,100.00
2023-01-30T20:14:52.457Z,100.00
2023-01-30T20:15:54.364Z,100.00
2023-01-30T20:16:56.435Z,100.00
2023-01-30T20:17:58.308Z,100.00
2023-01-30T20:19:03.817Z,100.00
2023-01-30T20:20:07.972Z,100.00
2023-01-30T20:21:12.764Z,100.00
2023-01-30T20:22:14.893Z,100.00
2023-01-30T20:23:16.817Z,100.00
2023-01-30T20:24:19.013Z,100.00
2023-01-30T20:25:21.006Z,100.00
2023-01-30T20:26:26.048Z,100.00
2023-01-30T20:27:28.119Z,100.00
2023-01-30T20:28:30.187Z,100.00
2023-01-30T20:29:32.277Z,100.00
2023-01-30T20:30:34.418Z,100.00
2023-01-30T20:31:37.710Z,100.00
2023-01-30T20:32:39.696Z,100.00
2023-01-30T20:33:42.417Z,100.00
2023-01-30T20:34:44.393Z,100.00
2023-01-30T20:35:46.410Z,100.00
2023-01-30T20:36:49.290Z,100.00
2023-01-30T20:37:51.154Z,100.00
2023-01-30T20:38:54.321Z,100.00
2023-01-30T20:39:56.260Z,100.00
2023-01-30T20:41:10.290Z,100.00
2023-01-30T20:42:12.267Z,100.00
2023-01-30T20:43:14.575Z,100.00
2023-01-30T20:44:17.415Z,100.00
2023-01-30T20:45:19.434Z,100.00
2023-01-30T20:46:25.433Z,100.00
2023-01-30T20:47:27.513Z,100.00
2023-01-30T20:48:32.075Z,100.00
2023-01-30T20:49:34.250Z,100.00
2023-01-30T20:50:36.351Z,100.00
2023-01-30T20:51:40.966Z,100.00
2023-01-30T20:52:42.885Z,100.00
2023-01-30T20:53:52.830Z,100.00
2023-01-30T20:54:54.977Z,100.00
2023-01-30T20:55:58.754Z,100.00
2023-01-30T20:57:00.794Z,100.00
2023-01-30T20:58:03.480Z,100.00
2023-01-30T20:59:07.002Z,100.00
2023-01-30T21:00:10.525Z,100.00
2023-01-30T21:01:17.904Z,100.00
2023-01-30T21:02:19.550Z,100.00
2023-01-30T21:03:25.664Z,100.00
2023-01-30T21:04:30.766Z,100.00
2023-01-30T21:05:35.213Z,100.00
2023-01-30T21:06:44.029Z,100.00
2023-01-30T21:07:42.830Z,100.00
2023-01-30T21:08:46.489Z,100.00
2023-01-30T21:09:48.844Z,100.00
2023-01-30T21:10:51.716Z,100.00
2023-01-30T21:11:53.622Z,100.00
2023-01-30T21:12:55.531Z,100.00
2023-01-30T21:13:57.621Z,100.00
2023-01-30T21:14:59.520Z,100.00
2023-01-30T21:16:05.301Z,100.00
2023-01-30T21:17:07.220Z,100.00
2023-01-30T21:18:09.203Z,100.00
2023-01-30T21:19:14.437Z,100.00
2023-01-30T21:20:17.079Z,100.00
2023-01-30T21:21:25.074Z,100.00
2023-01-30T21:22:27.130Z,100.00
2023-01-30T21:23:29.327Z,100.00
2023-01-30T21:24:31.391Z,100.00
2023-01-30T21:25:34.612Z,100.00
2023-01-30T21:26:38.646Z,100.00
2023-01-30T21:27:41.406Z,100.00
2023-01-30T21:28:44.644Z,100.00
2023-01-30T21:29:46.808Z,100.00
2023-01-30T21:30:49.178Z,100.00
2023-01-30T21:31:53.349Z,100.00
2023-01-30T21:32:55.495Z,100.00
2023-01-30T21:33:58.432Z,100.00
2023-01-30T21:35:00.509Z,100.00
2023-01-30T21:36:04.179Z,100.00
2023-01-30T21:37:07.310Z,100.00
2023-01-30T21:38:09.973Z,100.00
2023-01-30T21:39:12.913Z,100.00
2023-01-30T21:40:15.250Z,100.00
2023-01-30T21:41:21.535Z,100.00
2023-01-30T21:42:23.490Z,100.00
2023-01-30T21:43:26.233Z,100.00
2023-01-30T21:44:31.365Z,100.00
2023-01-30T21:45:33.428Z,100.00
2023-01-30T21:46:39.408Z,100.00
2023-01-30T21:47:41.478Z,100.00
2023-01-30T21:48:43.367Z,100.00
2023-01-30T21:49:45.375Z,100.00
2023-01-30T21:50:49.090Z,100.00
2023-01-30T21:51:51.999Z,100.00
2023-01-30T21:52:55.196Z,100.00
2023-01-30T21:53:58.063Z,100.00
2023-01-30T21:55:00.007Z,100.00
2023-01-30T21:56:02.623Z,100.00
